sensor_id;sensor_type;location;lat;lon;timestamp;P1;durP1;ratioP1;P2;durP2;ratioP2
2416;SDS011;1219;48.736;9.330;2022-12-24T00:00:22;3.30;;;2.30;;
2416;SDS011;1219;48.736;9.330;2022-12-24T00:02:52;3.70;;;2.03;;
2416;SDS011;1219;48.736;9.330;2022-12-24T00:05:18;7.60;;;2.07;;
2416;SDS011;1219;48.736;9.330;2022-12-24T00:07:44;3.47;;;2.47;;
2416;SDS011;1219;48.736;9.330;2022-12-24T00:10:10;3.20;;;2.20;;
2416;SDS011;1219;48.736;9.330;2022-12-24T00:12:36;5.40;;;2.30;;
2416;SDS011;1219;48.736;9.330;2022-12-24T00:15:04;6.50;;;2.30;;
2416;SDS011;1219;48.736;9.330;2022-12-24T00:17:30;5.63;;;3.00;;
2416;SDS011;1219;48.736;9.330;2022-12-24T00:19:56;3.00;;;2.00;;
2416;SDS011;1219;48.736;9.330;2022-12-24T00:22:22;2.30;;;2.10;;
2416;SDS011;1219;48.736;9.330;2022-12-24T00:24:48;2.93;;;2.40;;
2416;SDS011;1219;48.736;9.330;2022-12-24T00:27:14;5.50;;;3.23;;
2416;SDS011;1219;48.736;9.330;2022-12-24T00:29:40;5.10;;;2.70;;
2416;SDS011;1219;48.736;9.330;2022-12-24T00:32:06;5.03;;;2.10;;
2416;SDS011;1219;48.736;9.330;2022-12-24T00:34:34;3.20;;;2.50;;
2416;SDS011;1219;48.736;9.330;2022-12-24T00:37:00;5.03;;;2.13;;
2416;SDS011;1219;48.736;9.330;2022-12-24T00:39:26;4.43;;;2.60;;
2416;SDS011;1219;48.736;9.330;2022-12-24T00:41:52;4.30;;;2.43;;
2416;SDS011;1219;48.736;9.330;2022-12-24T00:44:18;7.40;;;2.53;;
2416;SDS011;1219;48.736;9.330;2022-12-24T00:46:44;5.50;;;2.27;;
2416;SDS011;1219;48.736;9.330;2022-12-24T00:49:11;4.37;;;2.30;;
2416;SDS011;1219;48.736;9.330;2022-12-24T00:51:37;2.87;;;2.00;;
2416;SDS011;1219;48.736;9.330;2022-12-24T00:54:03;2.70;;;1.93;;
2416;SDS011;1219;48.736;9.330;2022-12-24T00:56:30;7.40;;;2.33;;
2416;SDS011;1219;48.736;9.330;2022-12-24T00:58:56;2.40;;;1.97;;
2416;SDS011;1219;48.736;9.330;2022-12-24T01:01:22;3.30;;;2.23;;
2416;SDS011;1219;48.736;9.330;2022-12-24T01:03:48;2.53;;;1.90;;
2416;SDS011;1219;48.736;9.330;2022-12-24T01:06:16;6.50;;;3.27;;
2416;SDS011;1219;48.736;9.330;2022-12-24T01:08:42;3.10;;;2.80;;
2416;SDS011;1219;48.736;9.330;2022-12-24T01:11:09;7.70;;;3.40;;
2416;SDS011;1219;48.736;9.330;2022-12-24T01:13:35;9.10;;;3.60;;
2416;SDS011;1219;48.736;9.330;2022-12-24T01:16:01;4.27;;;2.50;;
2416;SDS011;1219;48.736;9.330;2022-12-24T01:18:28;3.87;;;2.40;;
2416;SDS011;1219;48.736;9.330;2022-12-24T01:20:55;4.90;;;2.30;;
2416;SDS011;1219;48.736;9.330;2022-12-24T01:23:21;3.33;;;1.90;;
2416;SDS011;1219;48.736;9.330;2022-12-24T01:25:47;3.20;;;2.00;;
2416;SDS011;1219;48.736;9.330;2022-12-24T01:28:13;4.10;;;2.40;;
2416;SDS011;1219;48.736;9.330;2022-12-24T01:30:39;3.37;;;2.33;;
2416;SDS011;1219;48.736;9.330;2022-12-24T01:33:05;6.33;;;1.90;;
2416;SDS011;1219;48.736;9.330;2022-12-24T01:35:31;2.93;;;2.20;;
2416;SDS011;1219;48.736;9.330;2022-12-24T01:37:57;4.00;;;2.20;;
2416;SDS011;1219;48.736;9.330;2022-12-24T01:40:24;5.60;;;2.23;;
2416;SDS011;1219;48.736;9.330;2022-12-24T01:43:14;3.00;;;2.60;;
2416;SDS011;1219;48.736;9.330;2022-12-24T01:45:51;5.57;;;2.70;;
2416;SDS011;1219;48.736;9.330;2022-12-24T01:48:34;3.03;;;1.70;;
2416;SDS011;1219;48.736;9.330;2022-12-24T01:51:10;1.70;;;1.60;;
2416;SDS011;1219;48.736;9.330;2022-12-24T01:53:39;5.43;;;1.80;;
2416;SDS011;1219;48.736;9.330;2022-12-24T01:56:06;3.90;;;2.00;;
2416;SDS011;1219;48.736;9.330;2022-12-24T01:58:34;5.30;;;2.00;;
2416;SDS011;1219;48.736;9.330;2022-12-24T02:01:01;4.00;;;1.87;;
2416;SDS011;1219;48.736;9.330;2022-12-24T02:03:27;1.90;;;1.70;;
2416;SDS011;1219;48.736;9.330;2022-12-24T02:05:53;2.93;;;1.90;;
2416;SDS011;1219;48.736;9.330;2022-12-24T02:08:21;5.33;;;2.00;;
2416;SDS011;1219;48.736;9.330;2022-12-24T02:10:47;5.93;;;2.00;;
2416;SDS011;1219;48.736;9.330;2022-12-24T02:13:14;5.20;;;1.60;;
2416;SDS011;1219;48.736;9.330;2022-12-24T02:15:45;7.47;;;3.47;;
2416;SDS011;1219;48.736;9.330;2022-12-24T02:18:25;3.60;;;1.77;;
2416;SDS011;1219;48.736;9.330;2022-12-24T02:28:55;5.73;;;2.00;;
2416;SDS011;1219;48.736;9.330;2022-12-24T02:34:00;8.13;;;2.20;;
2416;SDS011;1219;48.736;9.330;2022-12-24T02:36:37;5.17;;;2.10;;
2416;SDS011;1219;48.736;9.330;2022-12-24T02:39:05;4.70;;;1.97;;
2416;SDS011;1219;48.736;9.330;2022-12-24T02:41:34;3.67;;;1.97;;
2416;SDS011;1219;48.736;9.330;2022-12-24T02:44:20;4.13;;;1.90;;
2416;SDS011;1219;48.736;9.330;2022-12-24T02:46:47;3.30;;;2.00;;
2416;SDS011;1219;48.736;9.330;2022-12-24T02:49:13;5.83;;;1.60;;
2416;SDS011;1219;48.736;9.330;2022-12-24T02:51:39;3.43;;;1.90;;
2416;SDS011;1219;48.736;9.330;2022-12-24T02:54:05;12.53;;;2.83;;
2416;SDS011;1219;48.736;9.330;2022-12-24T03:02:19;5.20;;;2.47;;
2416;SDS011;1219;48.736;9.330;2022-12-24T03:04:56;3.43;;;2.10;;
2416;SDS011;1219;48.736;9.330;2022-12-24T03:07:29;2.80;;;1.90;;
2416;SDS011;1219;48.736;9.330;2022-12-24T03:12:47;5.23;;;1.80;;
2416;SDS011;1219;48.736;9.330;2022-12-24T03:15:15;5.93;;;2.40;;
2416;SDS011;1219;48.736;9.330;2022-12-24T03:17:43;6.00;;;2.97;;
2416;SDS011;1219;48.736;9.330;2022-12-24T03:20:10;5.63;;;2.77;;
2416;SDS011;1219;48.736;9.330;2022-12-24T03:22:37;9.53;;;3.07;;
2416;SDS011;1219;48.736;9.330;2022-12-24T03:25:03;5.00;;;2.60;;
2416;SDS011;1219;48.736;9.330;2022-12-24T03:27:29;7.23;;;2.47;;
2416;SDS011;1219;48.736;9.330;2022-12-24T03:29:56;6.07;;;2.30;;
2416;SDS011;1219;48.736;9.330;2022-12-24T03:32:23;7.50;;;3.03;;
2416;SDS011;1219;48.736;9.330;2022-12-24T03:34:50;5.97;;;2.20;;
2416;SDS011;1219;48.736;9.330;2022-12-24T03:37:16;7.10;;;2.90;;
2416;SDS011;1219;48.736;9.330;2022-12-24T03:39:42;5.27;;;2.27;;
2416;SDS011;1219;48.736;9.330;2022-12-24T03:42:08;5.40;;;2.10;;
2416;SDS011;1219;48.736;9.330;2022-12-24T03:44:34;5.10;;;2.40;;
2416;SDS011;1219;48.736;9.330;2022-12-24T03:47:00;6.67;;;2.10;;
2416;SDS011;1219;48.736;9.330;2022-12-24T03:49:26;7.80;;;2.47;;
2416;SDS011;1219;48.736;9.330;2022-12-24T03:51:51;6.20;;;2.57;;
2416;SDS011;1219;48.736;9.330;2022-12-24T03:54:17;8.70;;;2.40;;
2416;SDS011;1219;48.736;9.330;2022-12-24T03:56:43;8.93;;;2.67;;
2416;SDS011;1219;48.736;9.330;2022-12-24T03:59:09;4.67;;;2.20;;
2416;SDS011;1219;48.736;9.330;2022-12-24T04:01:35;5.70;;;2.10;;
2416;SDS011;1219;48.736;9.330;2022-12-24T04:04:01;7.07;;;2.30;;
2416;SDS011;1219;48.736;9.330;2022-12-24T04:06:27;6.83;;;2.70;;
2416;SDS011;1219;48.736;9.330;2022-12-24T04:08:53;8.43;;;4.60;;
2416;SDS011;1219;48.736;9.330;2022-12-24T04:11:19;8.00;;;3.63;;
2416;SDS011;1219;48.736;9.330;2022-12-24T04:13:45;5.13;;;3.23;;
2416;SDS011;1219;48.736;9.330;2022-12-24T04:16:12;11.20;;;3.10;;
2416;SDS011;1219;48.736;9.330;2022-12-24T04:18:39;10.03;;;3.13;;
2416;SDS011;1219;48.736;9.330;2022-12-24T04:21:05;8.00;;;2.33;;
2416;SDS011;1219;48.736;9.330;2022-12-24T04:23:31;6.70;;;2.40;;
2416;SDS011;1219;48.736;9.330;2022-12-24T04:25:58;5.50;;;2.20;;
2416;SDS011;1219;48.736;9.330;2022-12-24T04:28:24;6.47;;;2.37;;
2416;SDS011;1219;48.736;9.330;2022-12-24T04:30:50;9.20;;;2.53;;
2416;SDS011;1219;48.736;9.330;2022-12-24T04:33:16;3.93;;;2.50;;
2416;SDS011;1219;48.736;9.330;2022-12-24T04:35:42;6.63;;;2.60;;
2416;SDS011;1219;48.736;9.330;2022-12-24T04:38:08;4.60;;;2.10;;
2416;SDS011;1219;48.736;9.330;2022-12-24T04:40:34;7.83;;;2.77;;
2416;SDS011;1219;48.736;9.330;2022-12-24T04:43:01;6.50;;;2.47;;
2416;SDS011;1219;48.736;9.330;2022-12-24T04:45:27;9.67;;;2.80;;
2416;SDS011;1219;48.736;9.330;2022-12-24T04:47:52;3.80;;;2.30;;
2416;SDS011;1219;48.736;9.330;2022-12-24T04:50:18;16.27;;;3.83;;
2416;SDS011;1219;48.736;9.330;2022-12-24T04:52:44;3.30;;;2.50;;
2416;SDS011;1219;48.736;9.330;2022-12-24T04:55:10;8.23;;;2.47;;
2416;SDS011;1219;48.736;9.330;2022-12-24T04:57:36;4.63;;;2.30;;
2416;SDS011;1219;48.736;9.330;2022-12-24T05:00:03;4.37;;;2.20;;
2416;SDS011;1219;48.736;9.330;2022-12-24T05:02:29;2.40;;;2.00;;
2416;SDS011;1219;48.736;9.330;2022-12-24T05:04:55;7.00;;;2.83;;
2416;SDS011;1219;48.736;9.330;2022-12-24T05:07:21;6.17;;;2.40;;
2416;SDS011;1219;48.736;9.330;2022-12-24T05:09:47;6.83;;;2.30;;
2416;SDS011;1219;48.736;9.330;2022-12-24T05:12:13;5.47;;;2.27;;
2416;SDS011;1219;48.736;9.330;2022-12-24T05:14:39;3.20;;;2.07;;
2416;SDS011;1219;48.736;9.330;2022-12-24T05:17:05;7.80;;;2.47;;
2416;SDS011;1219;48.736;9.330;2022-12-24T05:19:31;9.50;;;2.37;;
2416;SDS011;1219;48.736;9.330;2022-12-24T05:21:57;4.23;;;2.27;;
2416;SDS011;1219;48.736;9.330;2022-12-24T05:24:42;7.13;;;3.17;;
2416;SDS011;1219;48.736;9.330;2022-12-24T05:27:26;6.23;;;2.20;;
2416;SDS011;1219;48.736;9.330;2022-12-24T05:29:52;9.67;;;2.63;;
2416;SDS011;1219;48.736;9.330;2022-12-24T05:32:18;7.00;;;2.73;;
2416;SDS011;1219;48.736;9.330;2022-12-24T05:34:45;5.70;;;2.37;;
2416;SDS011;1219;48.736;9.330;2022-12-24T05:37:10;9.80;;;2.60;;
2416;SDS011;1219;48.736;9.330;2022-12-24T05:39:36;2.97;;;2.30;;
2416;SDS011;1219;48.736;9.330;2022-12-24T05:42:02;7.57;;;2.70;;
2416;SDS011;1219;48.736;9.330;2022-12-24T05:44:28;8.03;;;2.80;;
2416;SDS011;1219;48.736;9.330;2022-12-24T05:46:54;5.83;;;2.53;;
2416;SDS011;1219;48.736;9.330;2022-12-24T05:49:20;7.90;;;2.43;;
2416;SDS011;1219;48.736;9.330;2022-12-24T05:51:46;4.43;;;3.00;;
2416;SDS011;1219;48.736;9.330;2022-12-24T05:54:12;4.13;;;2.27;;
2416;SDS011;1219;48.736;9.330;2022-12-24T05:56:38;3.90;;;2.57;;
2416;SDS011;1219;48.736;9.330;2022-12-24T05:59:04;2.40;;;2.13;;
2416;SDS011;1219;48.736;9.330;2022-12-24T06:01:30;10.20;;;2.20;;
2416;SDS011;1219;48.736;9.330;2022-12-24T06:03:56;5.10;;;2.60;;
2416;SDS011;1219;48.736;9.330;2022-12-24T06:06:23;3.23;;;2.23;;
2416;SDS011;1219;48.736;9.330;2022-12-24T06:08:50;3.57;;;2.30;;
2416;SDS011;1219;48.736;9.330;2022-12-24T06:11:16;5.67;;;2.47;;
2416;SDS011;1219;48.736;9.330;2022-12-24T06:13:43;5.30;;;2.47;;
2416;SDS011;1219;48.736;9.330;2022-12-24T06:16:10;3.73;;;1.90;;
2416;SDS011;1219;48.736;9.330;2022-12-24T06:18:36;4.83;;;2.03;;
2416;SDS011;1219;48.736;9.330;2022-12-24T06:21:03;4.70;;;2.00;;
2416;SDS011;1219;48.736;9.330;2022-12-24T06:23:30;3.63;;;2.17;;
2416;SDS011;1219;48.736;9.330;2022-12-24T06:25:56;5.93;;;1.97;;
2416;SDS011;1219;48.736;9.330;2022-12-24T06:28:24;4.93;;;2.33;;
2416;SDS011;1219;48.736;9.330;2022-12-24T06:30:50;9.77;;;3.40;;
2416;SDS011;1219;48.736;9.330;2022-12-24T06:33:16;11.90;;;3.20;;
2416;SDS011;1219;48.736;9.330;2022-12-24T06:35:43;4.33;;;3.93;;
2416;SDS011;1219;48.736;9.330;2022-12-24T06:38:09;11.17;;;6.70;;
2416;SDS011;1219;48.736;9.330;2022-12-24T06:40:39;30.20;;;12.90;;
2416;SDS011;1219;48.736;9.330;2022-12-24T06:43:05;36.23;;;14.63;;
2416;SDS011;1219;48.736;9.330;2022-12-24T06:45:31;28.13;;;15.40;;
2416;SDS011;1219;48.736;9.330;2022-12-24T06:47:57;24.70;;;11.10;;
2416;SDS011;1219;48.736;9.330;2022-12-24T06:50:23;24.33;;;10.93;;
2416;SDS011;1219;48.736;9.330;2022-12-24T06:52:49;22.73;;;10.97;;
2416;SDS011;1219;48.736;9.330;2022-12-24T06:55:15;27.63;;;14.27;;
2416;SDS011;1219;48.736;9.330;2022-12-24T06:57:41;29.07;;;16.10;;
2416;SDS011;1219;48.736;9.330;2022-12-24T07:00:08;38.40;;;18.60;;
2416;SDS011;1219;48.736;9.330;2022-12-24T07:02:34;31.53;;;18.13;;
2416;SDS011;1219;48.736;9.330;2022-12-24T07:05:00;39.17;;;21.40;;
2416;SDS011;1219;48.736;9.330;2022-12-24T07:07:26;43.00;;;24.40;;
2416;SDS011;1219;48.736;9.330;2022-12-24T07:09:52;37.13;;;20.23;;
2416;SDS011;1219;48.736;9.330;2022-12-24T07:12:18;30.27;;;14.70;;
2416;SDS011;1219;48.736;9.330;2022-12-24T07:14:44;29.00;;;17.00;;
2416;SDS011;1219;48.736;9.330;2022-12-24T07:17:10;25.00;;;12.90;;
2416;SDS011;1219;48.736;9.330;2022-12-24T07:19:36;19.77;;;11.80;;
2416;SDS011;1219;48.736;9.330;2022-12-24T07:22:02;14.83;;;10.50;;
2416;SDS011;1219;48.736;9.330;2022-12-24T07:24:28;11.00;;;6.80;;
2416;SDS011;1219;48.736;9.330;2022-12-24T07:26:54;10.10;;;6.43;;
2416;SDS011;1219;48.736;9.330;2022-12-24T07:29:20;14.30;;;6.23;;
2416;SDS011;1219;48.736;9.330;2022-12-24T07:31:45;18.33;;;11.00;;
2416;SDS011;1219;48.736;9.330;2022-12-24T07:34:11;22.17;;;13.43;;
2416;SDS011;1219;48.736;9.330;2022-12-24T07:36:37;28.27;;;15.73;;
2416;SDS011;1219;48.736;9.330;2022-12-24T07:39:03;36.87;;;19.40;;
2416;SDS011;1219;48.736;9.330;2022-12-24T07:41:29;61.17;;;34.57;;
2416;SDS011;1219;48.736;9.330;2022-12-24T07:43:55;33.60;;;20.27;;
2416;SDS011;1219;48.736;9.330;2022-12-24T07:46:21;31.03;;;17.33;;
2416;SDS011;1219;48.736;9.330;2022-12-24T07:48:47;19.13;;;10.57;;
2416;SDS011;1219;48.736;9.330;2022-12-24T07:51:13;14.20;;;6.63;;
2416;SDS011;1219;48.736;9.330;2022-12-24T07:53:39;12.70;;;8.47;;
2416;SDS011;1219;48.736;9.330;2022-12-24T07:56:11;10.50;;;7.50;;
2416;SDS011;1219;48.736;9.330;2022-12-24T07:58:37;11.07;;;6.33;;
2416;SDS011;1219;48.736;9.330;2022-12-24T08:01:03;14.97;;;7.80;;
2416;SDS011;1219;48.736;9.330;2022-12-24T08:03:29;32.73;;;19.63;;
2416;SDS011;1219;48.736;9.330;2022-12-24T08:05:55;42.53;;;23.10;;
2416;SDS011;1219;48.736;9.330;2022-12-24T08:08:22;30.07;;;20.17;;
2416;SDS011;1219;48.736;9.330;2022-12-24T08:10:48;33.87;;;17.47;;
2416;SDS011;1219;48.736;9.330;2022-12-24T08:13:14;31.30;;;18.80;;
2416;SDS011;1219;48.736;9.330;2022-12-24T08:15:40;45.83;;;18.90;;
2416;SDS011;1219;48.736;9.330;2022-12-24T08:18:07;27.40;;;15.00;;
2416;SDS011;1219;48.736;9.330;2022-12-24T08:20:32;33.10;;;15.73;;
2416;SDS011;1219;48.736;9.330;2022-12-24T08:22:58;24.90;;;9.77;;
2416;SDS011;1219;48.736;9.330;2022-12-24T08:25:25;19.40;;;11.17;;
2416;SDS011;1219;48.736;9.330;2022-12-24T08:27:50;11.43;;;7.50;;
2416;SDS011;1219;48.736;9.330;2022-12-24T08:30:16;10.93;;;6.73;;
2416;SDS011;1219;48.736;9.330;2022-12-24T08:32:42;14.10;;;5.27;;
2416;SDS011;1219;48.736;9.330;2022-12-24T08:35:08;17.70;;;9.10;;
2416;SDS011;1219;48.736;9.330;2022-12-24T08:37:34;7.40;;;5.47;;
2416;SDS011;1219;48.736;9.330;2022-12-24T08:40:00;8.70;;;3.10;;
2416;SDS011;1219;48.736;9.330;2022-12-24T08:42:26;8.20;;;3.70;;
2416;SDS011;1219;48.736;9.330;2022-12-24T08:44:52;5.73;;;2.57;;
2416;SDS011;1219;48.736;9.330;2022-12-24T08:47:18;8.00;;;3.80;;
2416;SDS011;1219;48.736;9.330;2022-12-24T08:49:44;9.80;;;4.50;;
2416;SDS011;1219;48.736;9.330;2022-12-24T08:52:10;6.57;;;4.00;;
2416;SDS011;1219;48.736;9.330;2022-12-24T08:54:36;12.10;;;4.47;;
2416;SDS011;1219;48.736;9.330;2022-12-24T08:57:02;13.77;;;7.50;;
2416;SDS011;1219;48.736;9.330;2022-12-24T08:59:28;19.60;;;9.13;;
2416;SDS011;1219;48.736;9.330;2022-12-24T09:01:54;18.60;;;9.60;;
2416;SDS011;1219;48.736;9.330;2022-12-24T09:04:20;12.97;;;4.90;;
2416;SDS011;1219;48.736;9.330;2022-12-24T09:06:46;11.20;;;5.93;;
2416;SDS011;1219;48.736;9.330;2022-12-24T09:09:12;4.17;;;3.50;;
2416;SDS011;1219;48.736;9.330;2022-12-24T09:11:38;6.57;;;3.43;;
2416;SDS011;1219;48.736;9.330;2022-12-24T09:14:04;7.37;;;3.37;;
2416;SDS011;1219;48.736;9.330;2022-12-24T09:16:30;6.00;;;3.27;;
2416;SDS011;1219;48.736;9.330;2022-12-24T09:18:56;8.97;;;2.60;;
2416;SDS011;1219;48.736;9.330;2022-12-24T09:21:22;4.40;;;3.47;;
2416;SDS011;1219;48.736;9.330;2022-12-24T09:23:48;7.20;;;2.80;;
2416;SDS011;1219;48.736;9.330;2022-12-24T09:28:43;4.90;;;2.90;;
2416;SDS011;1219;48.736;9.330;2022-12-24T09:31:10;6.87;;;3.23;;
2416;SDS011;1219;48.736;9.330;2022-12-24T09:33:37;10.47;;;3.17;;
2416;SDS011;1219;48.736;9.330;2022-12-24T09:36:04;6.33;;;2.40;;
2416;SDS011;1219;48.736;9.330;2022-12-24T09:38:30;6.20;;;2.30;;
2416;SDS011;1219;48.736;9.330;2022-12-24T09:40:57;6.50;;;2.37;;
2416;SDS011;1219;48.736;9.330;2022-12-24T09:43:24;8.80;;;3.03;;
2416;SDS011;1219;48.736;9.330;2022-12-24T09:48:20;4.23;;;2.70;;
2416;SDS011;1219;48.736;9.330;2022-12-24T09:53:16;5.87;;;2.57;;
2416;SDS011;1219;48.736;9.330;2022-12-24T09:55:43;4.90;;;2.27;;
2416;SDS011;1219;48.736;9.330;2022-12-24T09:58:15;3.63;;;2.20;;
2416;SDS011;1219;48.736;9.330;2022-12-24T10:00:44;6.47;;;2.87;;
2416;SDS011;1219;48.736;9.330;2022-12-24T10:03:14;8.83;;;2.97;;
2416;SDS011;1219;48.736;9.330;2022-12-24T10:05:44;9.33;;;2.97;;
2416;SDS011;1219;48.736;9.330;2022-12-24T10:11:09;7.70;;;2.60;;
2416;SDS011;1219;48.736;9.330;2022-12-24T10:13:39;7.40;;;3.30;;
2416;SDS011;1219;48.736;9.330;2022-12-24T10:16:26;6.47;;;2.70;;
2416;SDS011;1219;48.736;9.330;2022-12-24T10:21:35;8.40;;;2.10;;
2416;SDS011;1219;48.736;9.330;2022-12-24T10:24:05;10.93;;;3.30;;
2416;SDS011;1219;48.736;9.330;2022-12-24T10:26:42;7.57;;;2.43;;
2416;SDS011;1219;48.736;9.330;2022-12-24T10:29:13;5.73;;;2.50;;
2416;SDS011;1219;48.736;9.330;2022-12-24T10:31:43;9.60;;;2.83;;
2416;SDS011;1219;48.736;9.330;2022-12-24T10:34:17;5.27;;;2.23;;
2416;SDS011;1219;48.736;9.330;2022-12-24T10:36:44;4.90;;;2.40;;
2416;SDS011;1219;48.736;9.330;2022-12-24T10:39:13;10.17;;;2.63;;
2416;SDS011;1219;48.736;9.330;2022-12-24T10:41:41;10.90;;;2.70;;
2416;SDS011;1219;48.736;9.330;2022-12-24T10:44:09;4.93;;;2.73;;
2416;SDS011;1219;48.736;9.330;2022-12-24T10:46:39;5.43;;;2.10;;
2416;SDS011;1219;48.736;9.330;2022-12-24T10:49:06;5.97;;;2.53;;
2416;SDS011;1219;48.736;9.330;2022-12-24T10:51:49;5.40;;;2.63;;
2416;SDS011;1219;48.736;9.330;2022-12-24T10:54:21;9.53;;;2.67;;
2416;SDS011;1219;48.736;9.330;2022-12-24T10:56:48;8.07;;;2.43;;
2416;SDS011;1219;48.736;9.330;2022-12-24T10:59:36;6.00;;;2.33;;
2416;SDS011;1219;48.736;9.330;2022-12-24T11:02:24;8.10;;;3.23;;
2416;SDS011;1219;48.736;9.330;2022-12-24T11:04:50;3.60;;;2.10;;
2416;SDS011;1219;48.736;9.330;2022-12-24T11:07:18;8.00;;;2.57;;
2416;SDS011;1219;48.736;9.330;2022-12-24T11:09:52;6.37;;;2.50;;
2416;SDS011;1219;48.736;9.330;2022-12-24T11:12:20;3.90;;;2.60;;
2416;SDS011;1219;48.736;9.330;2022-12-24T11:14:47;5.37;;;2.97;;
2416;SDS011;1219;48.736;9.330;2022-12-24T11:17:19;5.67;;;2.60;;
2416;SDS011;1219;48.736;9.330;2022-12-24T11:19:47;3.60;;;2.13;;
2416;SDS011;1219;48.736;9.330;2022-12-24T11:24:45;6.13;;;2.60;;
2416;SDS011;1219;48.736;9.330;2022-12-24T11:27:22;5.47;;;2.80;;
2416;SDS011;1219;48.736;9.330;2022-12-24T11:29:49;9.83;;;2.77;;
2416;SDS011;1219;48.736;9.330;2022-12-24T11:32:17;4.97;;;2.60;;
2416;SDS011;1219;48.736;9.330;2022-12-24T11:34:43;4.03;;;2.53;;
2416;SDS011;1219;48.736;9.330;2022-12-24T11:37:17;6.20;;;2.40;;
2416;SDS011;1219;48.736;9.330;2022-12-24T11:39:46;6.40;;;2.17;;
2416;SDS011;1219;48.736;9.330;2022-12-24T11:42:46;7.83;;;2.80;;
2416;SDS011;1219;48.736;9.330;2022-12-24T11:45:06;3.93;;;2.17;;
2416;SDS011;1219;48.736;9.330;2022-12-24T11:47:39;6.23;;;2.10;;
2416;SDS011;1219;48.736;9.330;2022-12-24T11:52:44;4.83;;;2.17;;
2416;SDS011;1219;48.736;9.330;2022-12-24T11:55:20;5.60;;;2.23;;
2416;SDS011;1219;48.736;9.330;2022-12-24T11:57:52;12.47;;;3.27;;
2416;SDS011;1219;48.736;9.330;2022-12-24T12:00:20;4.43;;;2.90;;
2416;SDS011;1219;48.736;9.330;2022-12-24T12:02:47;6.77;;;3.00;;
2416;SDS011;1219;48.736;9.330;2022-12-24T12:05:19;6.87;;;3.50;;
2416;SDS011;1219;48.736;9.330;2022-12-24T12:07:49;5.40;;;2.70;;
2416;SDS011;1219;48.736;9.330;2022-12-24T12:10:22;4.97;;;2.00;;
2416;SDS011;1219;48.736;9.330;2022-12-24T12:12:56;7.03;;;2.17;;
2416;SDS011;1219;48.736;9.330;2022-12-24T12:15:23;6.83;;;2.57;;
2416;SDS011;1219;48.736;9.330;2022-12-24T12:17:53;6.47;;;2.20;;
2416;SDS011;1219;48.736;9.330;2022-12-24T12:20:23;3.80;;;2.53;;
2416;SDS011;1219;48.736;9.330;2022-12-24T12:23:00;3.37;;;2.27;;
2416;SDS011;1219;48.736;9.330;2022-12-24T12:28:14;7.30;;;1.60;;
2416;SDS011;1219;48.736;9.330;2022-12-24T12:30:43;10.10;;;1.93;;
2416;SDS011;1219;48.736;9.330;2022-12-24T12:33:21;6.20;;;2.33;;
2416;SDS011;1219;48.736;9.330;2022-12-24T12:35:50;5.30;;;1.80;;
2416;SDS011;1219;48.736;9.330;2022-12-24T12:38:20;8.00;;;2.27;;
2416;SDS011;1219;48.736;9.330;2022-12-24T12:46:27;6.43;;;1.87;;
2416;SDS011;1219;48.736;9.330;2022-12-24T12:51:25;7.70;;;2.17;;
2416;SDS011;1219;48.736;9.330;2022-12-24T12:53:58;5.50;;;1.60;;
2416;SDS011;1219;48.736;9.330;2022-12-24T12:56:31;5.37;;;1.97;;
2416;SDS011;1219;48.736;9.330;2022-12-24T13:01:35;4.30;;;1.93;;
2416;SDS011;1219;48.736;9.330;2022-12-24T13:04:09;2.40;;;1.90;;
2416;SDS011;1219;48.736;9.330;2022-12-24T13:06:57;2.90;;;1.70;;
2416;SDS011;1219;48.736;9.330;2022-12-24T13:20:30;5.40;;;2.30;;
2416;SDS011;1219;48.736;9.330;2022-12-24T13:25:36;10.03;;;2.43;;
2416;SDS011;1219;48.736;9.330;2022-12-24T13:30:41;4.80;;;2.20;;
2416;SDS011;1219;48.736;9.330;2022-12-24T13:33:08;6.03;;;1.93;;
2416;SDS011;1219;48.736;9.330;2022-12-24T13:35:35;4.83;;;2.10;;
2416;SDS011;1219;48.736;9.330;2022-12-24T13:40:46;8.30;;;2.30;;
2416;SDS011;1219;48.736;9.330;2022-12-24T13:43:12;7.40;;;2.40;;
2416;SDS011;1219;48.736;9.330;2022-12-24T13:55:51;3.03;;;2.30;;
2416;SDS011;1219;48.736;9.330;2022-12-24T13:58:18;7.10;;;3.00;;
2416;SDS011;1219;48.736;9.330;2022-12-24T14:00:52;11.53;;;3.00;;
2416;SDS011;1219;48.736;9.330;2022-12-24T14:03:23;7.83;;;3.10;;
2416;SDS011;1219;48.736;9.330;2022-12-24T14:05:51;7.03;;;3.67;;
2416;SDS011;1219;48.736;9.330;2022-12-24T14:16:04;5.40;;;2.87;;
2416;SDS011;1219;48.736;9.330;2022-12-24T14:18:34;3.70;;;3.20;;
2416;SDS011;1219;48.736;9.330;2022-12-24T14:21:02;4.27;;;2.97;;
2416;SDS011;1219;48.736;9.330;2022-12-24T14:23:37;8.10;;;3.20;;
2416;SDS011;1219;48.736;9.330;2022-12-24T14:26:08;8.13;;;4.03;;
2416;SDS011;1219;48.736;9.330;2022-12-24T14:28:38;6.63;;;4.77;;
2416;SDS011;1219;48.736;9.330;2022-12-24T14:31:05;11.03;;;4.00;;
2416;SDS011;1219;48.736;9.330;2022-12-24T14:33:31;6.30;;;3.70;;
2416;SDS011;1219;48.736;9.330;2022-12-24T14:35:57;10.33;;;4.13;;
2416;SDS011;1219;48.736;9.330;2022-12-24T14:38:24;6.20;;;3.40;;
2416;SDS011;1219;48.736;9.330;2022-12-24T14:46:28;10.40;;;4.30;;
2416;SDS011;1219;48.736;9.330;2022-12-24T14:51:33;11.30;;;3.50;;
2416;SDS011;1219;48.736;9.330;2022-12-24T14:56:35;6.80;;;3.47;;
2416;SDS011;1219;48.736;9.330;2022-12-24T14:59:13;4.90;;;3.33;;
2416;SDS011;1219;48.736;9.330;2022-12-24T15:01:39;6.40;;;3.47;;
2416;SDS011;1219;48.736;9.330;2022-12-24T15:06:35;7.77;;;4.13;;
2416;SDS011;1219;48.736;9.330;2022-12-24T15:09:02;9.67;;;4.37;;
2416;SDS011;1219;48.736;9.330;2022-12-24T15:11:28;6.30;;;3.57;;
2416;SDS011;1219;48.736;9.330;2022-12-24T15:13:55;6.83;;;3.53;;
2416;SDS011;1219;48.736;9.330;2022-12-24T15:16:23;9.67;;;3.80;;
2416;SDS011;1219;48.736;9.330;2022-12-24T15:18:52;7.70;;;3.37;;
2416;SDS011;1219;48.736;9.330;2022-12-24T15:21:21;6.00;;;3.93;;
2416;SDS011;1219;48.736;9.330;2022-12-24T15:23:50;12.53;;;4.83;;
2416;SDS011;1219;48.736;9.330;2022-12-24T15:28:45;7.00;;;5.17;;
2416;SDS011;1219;48.736;9.330;2022-12-24T15:31:15;7.53;;;5.17;;
2416;SDS011;1219;48.736;9.330;2022-12-24T15:33:45;13.37;;;7.00;;
2416;SDS011;1219;48.736;9.330;2022-12-24T15:36:11;16.13;;;7.77;;
2416;SDS011;1219;48.736;9.330;2022-12-24T15:38:42;12.97;;;6.00;;
2416;SDS011;1219;48.736;9.330;2022-12-24T15:41:19;11.13;;;6.97;;
2416;SDS011;1219;48.736;9.330;2022-12-24T15:43:46;22.33;;;11.53;;
2416;SDS011;1219;48.736;9.330;2022-12-24T15:46:23;10.13;;;8.60;;
2416;SDS011;1219;48.736;9.330;2022-12-24T15:48:49;10.70;;;6.00;;
2416;SDS011;1219;48.736;9.330;2022-12-24T15:51:25;10.10;;;5.40;;
2416;SDS011;1219;48.736;9.330;2022-12-24T15:53:55;9.00;;;4.70;;
2416;SDS011;1219;48.736;9.330;2022-12-24T15:59:10;14.30;;;7.50;;
2416;SDS011;1219;48.736;9.330;2022-12-24T16:01:36;14.83;;;7.57;;
2416;SDS011;1219;48.736;9.330;2022-12-24T16:04:11;12.80;;;9.07;;
2416;SDS011;1219;48.736;9.330;2022-12-24T16:07:22;19.77;;;9.23;;
2416;SDS011;1219;48.736;9.330;2022-12-24T16:09:38;15.90;;;9.83;;
2416;SDS011;1219;48.736;9.330;2022-12-24T16:12:22;18.93;;;10.00;;
2416;SDS011;1219;48.736;9.330;2022-12-24T16:14:56;18.80;;;12.07;;
2416;SDS011;1219;48.736;9.330;2022-12-24T16:17:24;17.97;;;12.47;;
2416;SDS011;1219;48.736;9.330;2022-12-24T16:19:52;15.27;;;11.50;;
2416;SDS011;1219;48.736;9.330;2022-12-24T16:22:19;13.43;;;9.23;;
2416;SDS011;1219;48.736;9.330;2022-12-24T16:24:56;9.47;;;8.30;;
2416;SDS011;1219;48.736;9.330;2022-12-24T16:27:22;11.50;;;8.67;;
2416;SDS011;1219;48.736;9.330;2022-12-24T16:29:48;16.30;;;8.70;;
2416;SDS011;1219;48.736;9.330;2022-12-24T16:32:26;17.73;;;9.63;;
2416;SDS011;1219;48.736;9.330;2022-12-24T16:34:54;20.73;;;10.90;;
2416;SDS011;1219;48.736;9.330;2022-12-24T16:37:19;12.13;;;9.03;;
2416;SDS011;1219;48.736;9.330;2022-12-24T16:39:45;13.07;;;10.60;;
2416;SDS011;1219;48.736;9.330;2022-12-24T16:42:12;12.27;;;9.70;;
2416;SDS011;1219;48.736;9.330;2022-12-24T16:44:57;19.90;;;10.37;;
2416;SDS011;1219;48.736;9.330;2022-12-24T16:47:24;13.83;;;10.00;;
2416;SDS011;1219;48.736;9.330;2022-12-24T16:49:51;20.33;;;12.67;;
2416;SDS011;1219;48.736;9.330;2022-12-24T16:52:21;17.03;;;11.10;;
2416;SDS011;1219;48.736;9.330;2022-12-24T16:54:47;17.27;;;11.20;;
2416;SDS011;1219;48.736;9.330;2022-12-24T16:57:13;17.20;;;11.43;;
2416;SDS011;1219;48.736;9.330;2022-12-24T16:59:39;12.60;;;9.60;;
2416;SDS011;1219;48.736;9.330;2022-12-24T17:02:05;25.17;;;14.30;;